Nearby METAR Reports

 

KTAN - Taunton, Massachusetts, USA
Distance from station: W 5mi, 8km
Updated: Thu, 01-Dec-2022 4:52pm EST

 
Barometer: 30.23 inHg , 1023.7 hPa
2022/12/01 21:52 KTAN 012152Z AUTO A3023 RMK AO2 SLPNO PWINO FZRANO TSNO $
KPYM - Plymouth, Massachusetts, USA
Distance from station: ENE 10mi, 16km
Updated: Thu, 01-Dec-2022 4:52pm EST
Partly cloudy
Partly cloudy
 Wind from WNW
Wind: WNW 12 mph , 19 km/h, Gust: 18 mph , 30 km/h
Temperature: 39°F , 4°C
Wind Chill: 32°F , 0°C
Dew Point: 19°F , -7°C
Humidity: 45%
Barometer: 30.21 inHg , 1023 hPa
Clouds: Partly cloudy
Visibility: 10 miles , 16 km
Cloud details: Partly cloudy 6500 ft
2022/12/01 21:52 KPYM 012152Z AUTO 29010G16KT 10SM SCT065 04/M07 A3021 RMK AO2 SLP232 T00441072
 
KEWB - New Bedford, Massachusetts, USA
Distance from station: S 14mi, 23km
Updated: Thu, 01-Dec-2022 4:53pm EST
Few Clouds
Few Clouds
 Wind from WNW
Wind: WNW 6 mph , 9 km/h
Temperature: 39°F , 4°C
Wind Chill: 35°F , 2°C
Dew Point: 19°F , -7°C
Humidity: 45%
Barometer: 30.22 inHg , 1023.4 hPa
Clouds: Few Clouds
Visibility: 10 miles , 16 km
Cloud details: Few Clouds 6000 ft
2022/12/01 21:53 KEWB 012153Z 30005KT 10SM FEW060 04/M07 A3022 RMK AO2 SLP235 T00391067
KGHG - Marshfield, Massachusetts, USA
Distance from station: NE 20mi, 31km
Updated: Thu, 01-Dec-2022 5:15pm EST

 Wind from W
Wind: W 12 mph , 19 km/h, Gust: 24 mph , 39 km/h
Temperature: 39°F , 4°C
Wind Chill: 32°F , 0°C
Dew Point: 18°F , -8°C
Humidity: 42%
Barometer: 30.22 inHg , 1023.4 hPa
Visibility: 10 miles , 16 km
2022/12/01 22:15 KGHG 012215Z AUTO 27010G21KT 240V330 10SM 04/M08 A3022 RMK AO2
 
KOWD - Norwood, Massachusetts, USA
Distance from station: NNW 24mi, 39km
Updated: Thu, 01-Dec-2022 4:53pm EST
Overcast
Overcast
 Wind from W
Wind: W 18 mph , 30 km/h, Gust: 28 mph , 44 km/h
Temperature: 41°F , 5°C
Wind Chill: 32°F , 0°C
Dew Point: 19°F , -7°C
Humidity: 42%
Barometer: 30.22 inHg , 1023.4 hPa
Clouds: Overcast
Visibility: 10 miles , 16 km
Cloud details: Overcast 6000 ft
2022/12/01 21:53 KOWD 012153Z 28016G24KT 10SM OVC060 05/M07 A3022 RMK AO2 PK WND 30028/2056 SLP234 T00501072
KMQE - East Milton, Massachusetts, USA
Distance from station: NNW 25mi, 40km
Updated: Thu, 01-Jul-2021 9:51am EDT
NOT Current

 Wind from WNW
Wind: WNW 9 mph , 15 km/h
Temperature: 75°F , 24°C
Dew Point: 70°F , 21°C
Humidity: 83%
Barometer: 29.86 inHg , 1011.2 hPa
2021/07/01 13:51 KMQE 011351Z AUTO 30008KT 24/21 A2986 RMK AO1 SLP116 T02440206
 
KFMH - Falmouth/Otis Ab, Massachusetts, USA
Distance from station: SE 27mi, 44km
Updated: Thu, 01-Dec-2022 3:55pm EST
NOT Current
Clear
Clear
 Wind from WNW
Wind: WNW 15 mph , 24 km/h, Gust: 30 mph , 48 km/h
Temperature: 39°F , 4°C
Wind Chill: 31°F , -1°C
Dew Point: 16°F , -9°C
Humidity: 39%
Barometer: 30.17 inHg , 1021.7 hPa
Clouds: Clear
Visibility: 10 miles , 16 km
2022/12/01 20:55 KFMH 012055Z 30013G26KT 10SM CLR 04/M09 A3017
KPVD - Providence/Green, Rhode Island, USA
Distance from station: WSW 29mi, 47km
Updated: Thu, 01-Dec-2022 4:51pm EST
Few Clouds
Few Clouds
 Wind from WNW
Wind: WNW 17 mph , 28 km/h, Gust: 24 mph , 39 km/h
Temperature: 39°F , 4°C
Wind Chill: 30°F , -1°C
Dew Point: 18°F , -8°C
Humidity: 42%
Barometer: 30.25 inHg , 1024.4 hPa
Clouds: Few Clouds
Visibility: 10 miles , 16 km
Cloud details: Few Clouds 6000 ft
2022/12/01 21:51 KPVD 012151Z 30015G21KT 10SM FEW060 04/M08 A3025 RMK AO2 SLP242 T00441078
 
KSFZ - Pawtucket, Rhode Island, USA
Distance from station: W 30mi, 48km
Updated: Thu, 01-Dec-2022 4:56pm EST
Overcast
Overcast
 Wind from WNW
Wind: WNW 15 mph , 24 km/h, Gust: 21 mph , 33 km/h
Temperature: 37°F , 3°C
Wind Chill: 28°F , -2°C
Dew Point: 18°F , -8°C
Humidity: 45%
Barometer: 30.23 inHg , 1023.7 hPa
Clouds: Overcast
Visibility: 10 miles , 16 km
Cloud details: Overcast 5000 ft
2022/12/01 21:56 KSFZ 012156Z AUTO 29013G18KT 10SM OVC050 03/M08 A3023 RMK AO2 PK WND 29026/2101 SLP241 T00331078
KUUU - Newport, Rhode Island, USA
Distance from station: SW 31mi, 50km
Updated: Thu, 01-Dec-2022 4:53pm EST
Clear
Clear
 Wind from WNW
Wind: WNW 13 mph , 20 km/h, Gust: 22 mph , 35 km/h
Temperature: 39°F , 4°C
Wind Chill: 31°F , -1°C
Dew Point: 19°F , -7°C
Humidity: 45%
Barometer: 30.24 inHg , 1024 hPa
Clouds: Clear
Visibility: 10 miles , 16 km
2022/12/01 21:53 KUUU 012153Z AUTO 30011G19KT 10SM CLR 04/M07 A3024 RMK AO2 PRESRR SLP240 T00391072
 
KOQU - N. Kingston/Quon, Rhode Island, USA
Distance from station: SW 32mi, 52km
Updated: Thu, 01-Dec-2022 4:50pm EST
Partly cloudy
Partly cloudy
 Wind from NW
Wind: NW 21 mph , 33 km/h
Temperature: 41°F , 5°C
Wind Chill: 32°F , 0°C
Dew Point: 19°F , -7°C
Humidity: 42%
Barometer: 30.26 inHg , 1024.7 hPa
Clouds: Partly cloudy
Visibility: 10 miles , 16 km
Cloud details: Partly cloudy 6500 ft
2022/12/01 21:50 KOQU 012150Z 31018KT 10SM SCT065 05/M07 A3026
KBOS - Boston, Massachusetts, USA
Distance from station: N 33mi, 54km
Updated: Thu, 01-Dec-2022 4:54pm EST
Mostly cloudy
Mostly cloudy
 Wind from W
Wind: W 12 mph , 19 km/h, Gust: 26 mph , 43 km/h
Temperature: 39°F , 4°C
Wind Chill: 32°F , 0°C
Dew Point: 19°F , -7°C
Humidity: 45%
Barometer: 30.21 inHg , 1023 hPa
Clouds: Mostly cloudy
Visibility: 10 miles , 16 km
Cloud details: Mostly cloudy 6500 ft
2022/12/01 21:54 KBOS 012154Z 28010G23KT 10SM BKN065 04/M07 A3021 RMK AO2 PK WND 27027/2125 SLP228 T00441072
 
KHYA - Hyannis, Massachusetts, USA
Distance from station: ESE 37mi, 59km
Updated: Thu, 01-Dec-2022 4:56pm EST
Partly cloudy
Partly cloudy
 Wind from W
Wind: W 9 mph , 15 km/h, Gust: 17 mph , 28 km/h
Temperature: 37°F , 3°C
Wind Chill: 30°F , -1°C
Dew Point: 18°F , -8°C
Humidity: 45%
Barometer: 30.19 inHg , 1022.4 hPa
Clouds: Partly cloudy
Visibility: 10 miles , 16 km
Cloud details: Partly cloudy 6500 ft
2022/12/01 21:56 KHYA 012156Z 28008G15KT 240V340 10SM SCT065 03/M08 A3019 RMK AO2 SLP225 T00331078
KMVY - Marthas Vineyard, Massachusetts, USA
Distance from station: SSE 37mi, 60km
Updated: Thu, 01-Dec-2022 4:53pm EST
Clear
Clear
 Wind from WNW
Wind: WNW 13 mph , 20 km/h, Gust: 28 mph , 44 km/h
Temperature: 43°F , 6°C
Wind Chill: 36°F , 2°C
Dew Point: 18°F , -8°C
Humidity: 36%
Barometer: 30.23 inHg , 1023.7 hPa
Clouds: Clear
Visibility: 10 miles , 16 km
2022/12/01 21:53 KMVY 012153Z 29011G24KT 10SM CLR 06/M08 A3023 RMK AO2 PK WND 30027/2058 SLP236 T00561078
 
KPVC - Provincetown, Massachusetts, USA
Distance from station: ENE 38mi, 61km
Updated: Thu, 01-Dec-2022 4:56pm EST
Overcast
Overcast
 Wind from W
Wind: W 25 mph , 41 km/h, Gust: 32 mph , 52 km/h
Temperature: 41°F , 5°C
Wind Chill: 31°F , -1°C
Dew Point: 21°F , -6°C
Humidity: 45%
Barometer: 30.19 inHg , 1022.4 hPa
Clouds: Overcast
Visibility: 10 miles , 16 km
Cloud details: Mostly cloudy 6000 ft
Overcast 7500 ft
2022/12/01 21:56 KPVC 012156Z AUTO 28022G28KT 10SM BKN060 OVC075 05/M06 A3019 RMK AO2 PK WND 28034/2114 SLPNO T00501056
KBED - Bedford, Massachusetts, USA
Distance from station: NNW 44mi, 72km
Updated: Thu, 01-Dec-2022 4:51pm EST
Overcast
Overcast
 Wind from W
Wind: W 17 mph , 28 km/h, Gust: 24 mph , 39 km/h
Temperature: 39°F , 4°C
Wind Chill: 30°F , -1°C
Dew Point: 19°F , -7°C
Humidity: 45%
Barometer: 30.19 inHg , 1022.4 hPa
Clouds: Overcast
Visibility: 10 miles , 16 km
Cloud details: Overcast 6000 ft
2022/12/01 21:51 KBED 012151Z 27015G21KT 10SM OVC060 04/M07 A3019 RMK AO2 PK WND 29026/2056 SLP238 T00441072
 
KBVY - Beverly, Massachusetts, USA
Distance from station: 0 48mi, 77km
Updated: Thu, 01-Dec-2022 4:53pm EST
Overcast
Overcast
 Wind from W
Wind: W 10 mph , 17 km/h, Gust: 18 mph , 30 km/h
Temperature: 39°F , 4°C
Wind Chill: 32°F , 0°C
Dew Point: 18°F , -8°C
Humidity: 42%
Barometer: 30.18 inHg , 1022 hPa
Clouds: Overcast
Visibility: 10 miles , 16 km
Cloud details: Overcast 6000 ft
2022/12/01 21:53 KBVY 012153Z 27009G16KT 10SM OVC060 04/M08 A3018 RMK AO2 SLP216 T00391078
KCQX - Chatham, Massachusetts, USA
Distance from station: ESE 49mi, 80km
Updated: Thu, 01-Dec-2022 4:52pm EST
Few Clouds
Few Clouds
 Wind from W
Wind: W 15 mph , 24 km/h, Gust: 26 mph , 43 km/h
Temperature: 41°F , 5°C
Wind Chill: 33°F , 1°C
Dew Point: 18°F , -8°C
Humidity: 39%
Barometer: 30.20 inHg , 1022.7 hPa
Clouds: Few Clouds
Visibility: 10 miles , 16 km
Cloud details: Few Clouds 6000 ft
2022/12/01 21:52 KCQX 012152Z AUTO 28013G23KT 10SM FEW060 05/M08 A3020 RMK AO2 SLP228 T00501083